sensor_id;sensor_type;location;lat;lon;timestamp;P1;P2;P0
55459;PMS5003;41326;45.302;-122.946;2023-08-06T00:00:16;2;2;
55459;PMS5003;41326;45.302;-122.946;2023-08-06T00:02:46;0;0;
55459;PMS5003;41326;45.302;-122.946;2023-08-06T00:05:16;1;1;
55459;PMS5003;41326;45.302;-122.946;2023-08-06T00:07:47;2;2;
55459;PMS5003;41326;45.302;-122.946;2023-08-06T00:10:17;4;1;
55459;PMS5003;41326;45.302;-122.946;2023-08-06T00:12:47;1;1;
55459;PMS5003;41326;45.302;-122.946;2023-08-06T00:15:18;1;1;
55459;PMS5003;41326;45.302;-122.946;2023-08-06T00:17:48;1;1;
55459;PMS5003;41326;45.302;-122.946;2023-08-06T00:20:18;1;1;
55459;PMS5003;41326;45.302;-122.946;2023-08-06T00:22:48;1;1;
55459;PMS5003;41326;45.302;-122.946;2023-08-06T00:25:19;1;1;
55459;PMS5003;41326;45.302;-122.946;2023-08-06T00:27:49;1;1;
55459;PMS5003;41326;45.302;-122.946;2023-08-06T00:30:19;1;1;
55459;PMS5003;41326;45.302;-122.946;2023-08-06T00:32:49;0;0;
55459;PMS5003;41326;45.302;-122.946;2023-08-06T00:35:20;1;1;
55459;PMS5003;41326;45.302;-122.946;2023-08-06T00:37:50;1;1;
55459;PMS5003;41326;45.302;-122.946;2023-08-06T00:40:20;2;2;
55459;PMS5003;41326;45.302;-122.946;2023-08-06T00:42:51;2;1;
55459;PMS5003;41326;45.302;-122.946;2023-08-06T00:45:21;1;1;
55459;PMS5003;41326;45.302;-122.946;2023-08-06T00:47:51;0;0;
55459;PMS5003;41326;45.302;-122.946;2023-08-06T00:50:21;0;0;
55459;PMS5003;41326;45.302;-122.946;2023-08-06T00:52:52;0;0;
55459;PMS5003;41326;45.302;-122.946;2023-08-06T00:55:22;1;1;
55459;PMS5003;41326;45.302;-122.946;2023-08-06T00:57:52;3;2;
55459;PMS5003;41326;45.302;-122.946;2023-08-06T01:00:23;1;1;
55459;PMS5003;41326;45.302;-122.946;2023-08-06T01:02:53;0;0;
55459;PMS5003;41326;45.302;-122.946;2023-08-06T01:05:23;0;0;
55459;PMS5003;41326;45.302;-122.946;2023-08-06T01:08:00;0;0;
55459;PMS5003;41326;45.302;-122.946;2023-08-06T01:12:57;0;0;
55459;PMS5003;41326;45.302;-122.946;2023-08-06T01:15:26;1;1;
55459;PMS5003;41326;45.302;-122.946;2023-08-06T01:17:55;0;0;
55459;PMS5003;41326;45.302;-122.946;2023-08-06T01:20:27;0;0;
55459;PMS5003;41326;45.302;-122.946;2023-08-06T01:22:56;0;0;
55459;PMS5003;41326;45.302;-122.946;2023-08-06T01:25:28;1;1;
55459;PMS5003;41326;45.302;-122.946;2023-08-06T01:27:57;4;1;
55459;PMS5003;41326;45.302;-122.946;2023-08-06T01:30:28;0;0;
55459;PMS5003;41326;45.302;-122.946;2023-08-06T01:32:58;1;1;
55459;PMS5003;41326;45.302;-122.946;2023-08-06T01:35:28;1;1;
55459;PMS5003;41326;45.302;-122.946;2023-08-06T01:37:58;1;1;
55459;PMS5003;41326;45.302;-122.946;2023-08-06T01:40:28;0;0;
55459;PMS5003;41326;45.302;-122.946;2023-08-06T01:42:58;0;0;
55459;PMS5003;41326;45.302;-122.946;2023-08-06T01:45:29;0;0;
55459;PMS5003;41326;45.302;-122.946;2023-08-06T01:47:59;2;2;
55459;PMS5003;41326;45.302;-122.946;2023-08-06T01:50:30;1;1;
55459;PMS5003;41326;45.302;-122.946;2023-08-06T01:53:00;0;0;
55459;PMS5003;41326;45.302;-122.946;2023-08-06T01:55:30;1;1;
55459;PMS5003;41326;45.302;-122.946;2023-08-06T01:58:01;2;1;
55459;PMS5003;41326;45.302;-122.946;2023-08-06T02:00:31;1;1;
55459;PMS5003;41326;45.302;-122.946;2023-08-06T02:03:01;1;1;
55459;PMS5003;41326;45.302;-122.946;2023-08-06T02:05:31;1;1;
55459;PMS5003;41326;45.302;-122.946;2023-08-06T02:08:02;0;0;
55459;PMS5003;41326;45.302;-122.946;2023-08-06T02:10:32;0;0;
55459;PMS5003;41326;45.302;-122.946;2023-08-06T02:13:02;0;0;
55459;PMS5003;41326;45.302;-122.946;2023-08-06T02:15:32;0;0;
55459;PMS5003;41326;45.302;-122.946;2023-08-06T02:18:02;0;0;
55459;PMS5003;41326;45.302;-122.946;2023-08-06T02:20:32;1;0;
55459;PMS5003;41326;45.302;-122.946;2023-08-06T02:23:02;1;0;
55459;PMS5003;41326;45.302;-122.946;2023-08-06T02:25:33;1;0;
55459;PMS5003;41326;45.302;-122.946;2023-08-06T02:28:03;1;1;
55459;PMS5003;41326;45.302;-122.946;2023-08-06T02:30:33;0;0;
55459;PMS5003;41326;45.302;-122.946;2023-08-06T02:33:04;1;0;
55459;PMS5003;41326;45.302;-122.946;2023-08-06T02:35:34;0;0;
55459;PMS5003;41326;45.302;-122.946;2023-08-06T02:38:04;0;0;
55459;PMS5003;41326;45.302;-122.946;2023-08-06T02:40:34;0;0;
55459;PMS5003;41326;45.302;-122.946;2023-08-06T02:43:04;0;0;
55459;PMS5003;41326;45.302;-122.946;2023-08-06T02:45:35;0;0;
55459;PMS5003;41326;45.302;-122.946;2023-08-06T02:48:05;0;0;
55459;PMS5003;41326;45.302;-122.946;2023-08-06T02:50:39;1;1;
55459;PMS5003;41326;45.302;-122.946;2023-08-06T02:53:06;0;0;
55459;PMS5003;41326;45.302;-122.946;2023-08-06T02:55:36;1;1;
55459;PMS5003;41326;45.302;-122.946;2023-08-06T02:58:07;0;0;
55459;PMS5003;41326;45.302;-122.946;2023-08-06T03:00:37;0;0;
55459;PMS5003;41326;45.302;-122.946;2023-08-06T03:03:08;0;0;
55459;PMS5003;41326;45.302;-122.946;2023-08-06T03:05:38;1;1;
55459;PMS5003;41326;45.302;-122.946;2023-08-06T03:08:08;0;0;
55459;PMS5003;41326;45.302;-122.946;2023-08-06T03:10:38;0;0;
55459;PMS5003;41326;45.302;-122.946;2023-08-06T03:13:09;0;0;
55459;PMS5003;41326;45.302;-122.946;2023-08-06T03:15:39;1;1;
55459;PMS5003;41326;45.302;-122.946;2023-08-06T03:18:09;0;0;
55459;PMS5003;41326;45.302;-122.946;2023-08-06T03:20:40;1;0;
55459;PMS5003;41326;45.302;-122.946;2023-08-06T03:23:11;0;0;
55459;PMS5003;41326;45.302;-122.946;2023-08-06T03:25:41;0;0;
55459;PMS5003;41326;45.302;-122.946;2023-08-06T03:28:11;0;0;
55459;PMS5003;41326;45.302;-122.946;2023-08-06T03:30:41;0;0;
55459;PMS5003;41326;45.302;-122.946;2023-08-06T03:33:11;0;0;
55459;PMS5003;41326;45.302;-122.946;2023-08-06T03:35:42;0;0;
55459;PMS5003;41326;45.302;-122.946;2023-08-06T03:38:12;1;1;
55459;PMS5003;41326;45.302;-122.946;2023-08-06T03:40:43;0;0;
55459;PMS5003;41326;45.302;-122.946;2023-08-06T03:43:13;1;1;
55459;PMS5003;41326;45.302;-122.946;2023-08-06T03:45:43;1;0;
55459;PMS5003;41326;45.302;-122.946;2023-08-06T03:48:14;0;0;
55459;PMS5003;41326;45.302;-122.946;2023-08-06T03:50:44;0;0;
55459;PMS5003;41326;45.302;-122.946;2023-08-06T03:53:15;0;0;
55459;PMS5003;41326;45.302;-122.946;2023-08-06T03:55:45;0;0;
55459;PMS5003;41326;45.302;-122.946;2023-08-06T03:58:15;0;0;
55459;PMS5003;41326;45.302;-122.946;2023-08-06T04:00:46;0;0;
55459;PMS5003;41326;45.302;-122.946;2023-08-06T04:03:16;0;0;
55459;PMS5003;41326;45.302;-122.946;2023-08-06T04:05:46;1;1;
55459;PMS5003;41326;45.302;-122.946;2023-08-06T04:08:17;0;0;
55459;PMS5003;41326;45.302;-122.946;2023-08-06T04:10:49;0;0;
55459;PMS5003;41326;45.302;-122.946;2023-08-06T04:13:17;0;0;
55459;PMS5003;41326;45.302;-122.946;2023-08-06T04:15:48;0;0;
55459;PMS5003;41326;45.302;-122.946;2023-08-06T04:18:18;0;0;
55459;PMS5003;41326;45.302;-122.946;2023-08-06T04:20:48;1;1;
55459;PMS5003;41326;45.302;-122.946;2023-08-06T04:23:18;1;0;
55459;PMS5003;41326;45.302;-122.946;2023-08-06T04:25:48;0;0;
55459;PMS5003;41326;45.302;-122.946;2023-08-06T04:28:19;1;1;
55459;PMS5003;41326;45.302;-122.946;2023-08-06T04:30:48;0;0;
55459;PMS5003;41326;45.302;-122.946;2023-08-06T04:33:19;1;0;
55459;PMS5003;41326;45.302;-122.946;2023-08-06T04:35:54;0;0;
55459;PMS5003;41326;45.302;-122.946;2023-08-06T04:38:20;0;0;
55459;PMS5003;41326;45.302;-122.946;2023-08-06T04:40:50;0;0;
55459;PMS5003;41326;45.302;-122.946;2023-08-06T04:43:20;0;0;
55459;PMS5003;41326;45.302;-122.946;2023-08-06T04:45:53;0;0;
55459;PMS5003;41326;45.302;-122.946;2023-08-06T04:48:21;0;0;
55459;PMS5003;41326;45.302;-122.946;2023-08-06T04:50:51;0;0;
55459;PMS5003;41326;45.302;-122.946;2023-08-06T04:53:22;0;0;
55459;PMS5003;41326;45.302;-122.946;2023-08-06T04:55:52;0;0;
55459;PMS5003;41326;45.302;-122.946;2023-08-06T04:58:23;0;0;
55459;PMS5003;41326;45.302;-122.946;2023-08-06T05:00:53;0;0;
55459;PMS5003;41326;45.302;-122.946;2023-08-06T05:03:24;0;0;
55459;PMS5003;41326;45.302;-122.946;2023-08-06T05:05:54;0;0;
55459;PMS5003;41326;45.302;-122.946;2023-08-06T05:08:25;1;1;
55459;PMS5003;41326;45.302;-122.946;2023-08-06T05:10:55;0;0;
55459;PMS5003;41326;45.302;-122.946;2023-08-06T05:13:26;0;0;
55459;PMS5003;41326;45.302;-122.946;2023-08-06T05:15:56;1;0;
55459;PMS5003;41326;45.302;-122.946;2023-08-06T05:18:26;0;0;
55459;PMS5003;41326;45.302;-122.946;2023-08-06T05:20:57;0;0;
55459;PMS5003;41326;45.302;-122.946;2023-08-06T05:23:27;0;0;
55459;PMS5003;41326;45.302;-122.946;2023-08-06T05:25:57;0;0;
55459;PMS5003;41326;45.302;-122.946;2023-08-06T05:28:27;0;0;
55459;PMS5003;41326;45.302;-122.946;2023-08-06T05:30:57;0;0;
55459;PMS5003;41326;45.302;-122.946;2023-08-06T05:33:28;0;0;
55459;PMS5003;41326;45.302;-122.946;2023-08-06T05:35:58;0;0;
55459;PMS5003;41326;45.302;-122.946;2023-08-06T05:38:29;1;1;
55459;PMS5003;41326;45.302;-122.946;2023-08-06T05:40:58;0;0;
55459;PMS5003;41326;45.302;-122.946;2023-08-06T05:43:30;0;0;
55459;PMS5003;41326;45.302;-122.946;2023-08-06T05:45:59;0;0;
55459;PMS5003;41326;45.302;-122.946;2023-08-06T05:48:30;0;0;
55459;PMS5003;41326;45.302;-122.946;2023-08-06T05:51:01;0;0;
55459;PMS5003;41326;45.302;-122.946;2023-08-06T05:53:31;0;0;
55459;PMS5003;41326;45.302;-122.946;2023-08-06T05:56:01;1;0;
55459;PMS5003;41326;45.302;-122.946;2023-08-06T05:58:31;0;0;
55459;PMS5003;41326;45.302;-122.946;2023-08-06T06:01:01;0;0;
55459;PMS5003;41326;45.302;-122.946;2023-08-06T06:03:32;0;0;
55459;PMS5003;41326;45.302;-122.946;2023-08-06T06:06:02;0;0;
55459;PMS5003;41326;45.302;-122.946;2023-08-06T06:08:32;0;0;
55459;PMS5003;41326;45.302;-122.946;2023-08-06T06:11:02;0;0;
55459;PMS5003;41326;45.302;-122.946;2023-08-06T06:13:32;0;0;
55459;PMS5003;41326;45.302;-122.946;2023-08-06T06:16:03;0;0;
55459;PMS5003;41326;45.302;-122.946;2023-08-06T06:18:33;0;0;
55459;PMS5003;41326;45.302;-122.946;2023-08-06T06:21:03;0;0;
55459;PMS5003;41326;45.302;-122.946;2023-08-06T06:23:33;0;0;
55459;PMS5003;41326;45.302;-122.946;2023-08-06T06:26:04;0;0;
55459;PMS5003;41326;45.302;-122.946;2023-08-06T06:28:34;0;0;
55459;PMS5003;41326;45.302;-122.946;2023-08-06T06:31:05;0;0;
55459;PMS5003;41326;45.302;-122.946;2023-08-06T06:33:36;0;0;
55459;PMS5003;41326;45.302;-122.946;2023-08-06T06:36:06;2;2;
55459;PMS5003;41326;45.302;-122.946;2023-08-06T06:38:36;1;1;
55459;PMS5003;41326;45.302;-122.946;2023-08-06T06:41:07;1;1;
55459;PMS5003;41326;45.302;-122.946;2023-08-06T06:43:37;2;2;
55459;PMS5003;41326;45.302;-122.946;2023-08-06T06:46:08;0;0;
55459;PMS5003;41326;45.302;-122.946;2023-08-06T06:48:38;0;0;
55459;PMS5003;41326;45.302;-122.946;2023-08-06T06:51:08;0;0;
55459;PMS5003;41326;45.302;-122.946;2023-08-06T06:53:39;0;0;
55459;PMS5003;41326;45.302;-122.946;2023-08-06T06:56:09;0;0;
55459;PMS5003;41326;45.302;-122.946;2023-08-06T06:58:40;0;0;
55459;PMS5003;41326;45.302;-122.946;2023-08-06T07:01:10;0;0;
55459;PMS5003;41326;45.302;-122.946;2023-08-06T07:03:40;1;0;
55459;PMS5003;41326;45.302;-122.946;2023-08-06T07:06:10;0;0;
55459;PMS5003;41326;45.302;-122.946;2023-08-06T07:08:41;0;0;
55459;PMS5003;41326;45.302;-122.946;2023-08-06T07:11:10;1;1;
55459;PMS5003;41326;45.302;-122.946;2023-08-06T07:13:41;0;0;
55459;PMS5003;41326;45.302;-122.946;2023-08-06T07:16:11;0;0;
55459;PMS5003;41326;45.302;-122.946;2023-08-06T07:18:42;4;4;
55459;PMS5003;41326;45.302;-122.946;2023-08-06T07:21:11;8;8;
55459;PMS5003;41326;45.302;-122.946;2023-08-06T07:23:41;12;11;
55459;PMS5003;41326;45.302;-122.946;2023-08-06T07:26:12;35;24;
55459;PMS5003;41326;45.302;-122.946;2023-08-06T07:28:42;23;20;
55459;PMS5003;41326;45.302;-122.946;2023-08-06T07:31:13;20;13;
55459;PMS5003;41326;45.302;-122.946;2023-08-06T07:33:43;14;9;
55459;PMS5003;41326;45.302;-122.946;2023-08-06T07:36:14;17;7;
55459;PMS5003;41326;45.302;-122.946;2023-08-06T07:38:44;12;9;
55459;PMS5003;41326;45.302;-122.946;2023-08-06T07:41:14;12;7;
55459;PMS5003;41326;45.302;-122.946;2023-08-06T07:43:45;4;4;
55459;PMS5003;41326;45.302;-122.946;2023-08-06T07:46:15;4;3;
55459;PMS5003;41326;45.302;-122.946;2023-08-06T07:48:46;8;4;
55459;PMS5003;41326;45.302;-122.946;2023-08-06T07:51:16;5;4;
55459;PMS5003;41326;45.302;-122.946;2023-08-06T07:53:46;3;3;
55459;PMS5003;41326;45.302;-122.946;2023-08-06T07:56:17;2;2;
55459;PMS5003;41326;45.302;-122.946;2023-08-06T07:58:47;1;0;
55459;PMS5003;41326;45.302;-122.946;2023-08-06T08:01:18;1;1;
55459;PMS5003;41326;45.302;-122.946;2023-08-06T08:03:48;2;2;
55459;PMS5003;41326;45.302;-122.946;2023-08-06T08:06:18;1;1;
55459;PMS5003;41326;45.302;-122.946;2023-08-06T08:08:49;2;2;
55459;PMS5003;41326;45.302;-122.946;2023-08-06T08:11:20;4;2;
55459;PMS5003;41326;45.302;-122.946;2023-08-06T08:13:49;1;1;
55459;PMS5003;41326;45.302;-122.946;2023-08-06T08:16:20;2;1;
55459;PMS5003;41326;45.302;-122.946;2023-08-06T08:18:50;1;1;
55459;PMS5003;41326;45.302;-122.946;2023-08-06T08:21:21;0;0;
55459;PMS5003;41326;45.302;-122.946;2023-08-06T08:23:51;1;1;
55459;PMS5003;41326;45.302;-122.946;2023-08-06T08:26:21;3;1;
55459;PMS5003;41326;45.302;-122.946;2023-08-06T08:28:52;0;0;
55459;PMS5003;41326;45.302;-122.946;2023-08-06T08:32:41;1;1;
55459;PMS5003;41326;45.302;-122.946;2023-08-06T08:35:12;1;1;
55459;PMS5003;41326;45.302;-122.946;2023-08-06T08:37:42;0;0;
55459;PMS5003;41326;45.302;-122.946;2023-08-06T08:40:13;1;1;
55459;PMS5003;41326;45.302;-122.946;2023-08-06T08:42:43;1;1;
55459;PMS5003;41326;45.302;-122.946;2023-08-06T08:45:14;0;0;
55459;PMS5003;41326;45.302;-122.946;2023-08-06T08:47:44;0;0;
55459;PMS5003;41326;45.302;-122.946;2023-08-06T08:50:14;0;0;
55459;PMS5003;41326;45.302;-122.946;2023-08-06T08:52:45;0;0;
55459;PMS5003;41326;45.302;-122.946;2023-08-06T08:55:15;3;0;
55459;PMS5003;41326;45.302;-122.946;2023-08-06T08:57:46;2;1;
55459;PMS5003;41326;45.302;-122.946;2023-08-06T09:00:16;1;1;
55459;PMS5003;41326;45.302;-122.946;2023-08-06T09:02:47;2;1;
55459;PMS5003;41326;45.302;-122.946;2023-08-06T09:05:17;2;2;
55459;PMS5003;41326;45.302;-122.946;2023-08-06T09:07:48;2;1;
55459;PMS5003;41326;45.302;-122.946;2023-08-06T09:10:18;1;1;
55459;PMS5003;41326;45.302;-122.946;2023-08-06T09:12:49;2;2;
55459;PMS5003;41326;45.302;-122.946;2023-08-06T09:15:19;1;1;
55459;PMS5003;41326;45.302;-122.946;2023-08-06T09:17:50;0;0;
55459;PMS5003;41326;45.302;-122.946;2023-08-06T09:20:20;0;0;
55459;PMS5003;41326;45.302;-122.946;2023-08-06T09:22:53;0;0;
55459;PMS5003;41326;45.302;-122.946;2023-08-06T09:25:21;0;0;
55459;PMS5003;41326;45.302;-122.946;2023-08-06T09:27:51;0;0;
55459;PMS5003;41326;45.302;-122.946;2023-08-06T09:32:52;1;1;
55459;PMS5003;41326;45.302;-122.946;2023-08-06T09:35:22;0;0;
55459;PMS5003;41326;45.302;-122.946;2023-08-06T09:37:52;0;0;
55459;PMS5003;41326;45.302;-122.946;2023-08-06T09:40:24;1;0;
55459;PMS5003;41326;45.302;-122.946;2023-08-06T09:42:52;0;0;
55459;PMS5003;41326;45.302;-122.946;2023-08-06T09:45:22;0;0;
55459;PMS5003;41326;45.302;-122.946;2023-08-06T09:47:56;0;0;
55459;PMS5003;41326;45.302;-122.946;2023-08-06T09:50:23;0;0;
55459;PMS5003;41326;45.302;-122.946;2023-08-06T09:52:53;0;0;
55459;PMS5003;41326;45.302;-122.946;2023-08-06T09:55:23;0;0;
55459;PMS5003;41326;45.302;-122.946;2023-08-06T09:57:53;0;0;
55459;PMS5003;41326;45.302;-122.946;2023-08-06T10:00:23;0;0;
55459;PMS5003;41326;45.302;-122.946;2023-08-06T10:02:54;0;0;
55459;PMS5003;41326;45.302;-122.946;2023-08-06T10:05:24;1;1;
55459;PMS5003;41326;45.302;-122.946;2023-08-06T10:07:55;0;0;
55459;PMS5003;41326;45.302;-122.946;2023-08-06T10:10:25;0;0;
55459;PMS5003;41326;45.302;-122.946;2023-08-06T10:12:56;1;0;
55459;PMS5003;41326;45.302;-122.946;2023-08-06T10:15:27;0;0;
55459;PMS5003;41326;45.302;-122.946;2023-08-06T10:17:57;0;0;
55459;PMS5003;41326;45.302;-122.946;2023-08-06T10:20:26;0;0;
55459;PMS5003;41326;45.302;-122.946;2023-08-06T10:23:01;0;0;
55459;PMS5003;41326;45.302;-122.946;2023-08-06T10:25:30;0;0;
55459;PMS5003;41326;45.302;-122.946;2023-08-06T10:27:57;0;0;
55459;PMS5003;41326;45.302;-122.946;2023-08-06T10:30:28;0;0;
55459;PMS5003;41326;45.302;-122.946;2023-08-06T10:32:59;0;0;
55459;PMS5003;41326;45.302;-122.946;2023-08-06T10:35:30;0;0;
55459;PMS5003;41326;45.302;-122.946;2023-08-06T10:37:59;0;0;
55459;PMS5003;41326;45.302;-122.946;2023-08-06T10:40:29;0;0;
55459;PMS5003;41326;45.302;-122.946;2023-08-06T10:43:00;0;0;
55459;PMS5003;41326;45.302;-122.946;2023-08-06T10:45:30;0;0;
55459;PMS5003;41326;45.302;-122.946;2023-08-06T10:48:00;0;0;
55459;PMS5003;41326;45.302;-122.946;2023-08-06T10:50:31;2;0;
55459;PMS5003;41326;45.302;-122.946;2023-08-06T10:53:04;0;0;
55459;PMS5003;41326;45.302;-122.946;2023-08-06T10:55:31;0;0;
55459;PMS5003;41326;45.302;-122.946;2023-08-06T10:58:02;0;0;
55459;PMS5003;41326;45.302;-122.946;2023-08-06T11:00:32;0;0;
55459;PMS5003;41326;45.302;-122.946;2023-08-06T11:03:03;0;0;
55459;PMS5003;41326;45.302;-122.946;2023-08-06T11:05:33;0;0;
55459;PMS5003;41326;45.302;-122.946;2023-08-06T11:08:03;0;0;
55459;PMS5003;41326;45.302;-122.946;2023-08-06T11:10:33;0;0;
55459;PMS5003;41326;45.302;-122.946;2023-08-06T11:13:04;0;0;
55459;PMS5003;41326;45.302;-122.946;2023-08-06T11:15:34;0;0;
55459;PMS5003;41326;45.302;-122.946;2023-08-06T11:18:05;0;0;
55459;PMS5003;41326;45.302;-122.946;2023-08-06T11:20:35;0;0;
55459;PMS5003;41326;45.302;-122.946;2023-08-06T11:23:06;0;0;
55459;PMS5003;41326;45.302;-122.946;2023-08-06T11:25:36;0;0;
55459;PMS5003;41326;45.302;-122.946;2023-08-06T11:28:06;0;0;
55459;PMS5003;41326;45.302;-122.946;2023-08-06T11:30:37;0;0;
55459;PMS5003;41326;45.302;-122.946;2023-08-06T11:33:08;0;0;
55459;PMS5003;41326;45.302;-122.946;2023-08-06T11:35:38;0;0;
55459;PMS5003;41326;45.302;-122.946;2023-08-06T11:38:09;0;0;
55459;PMS5003;41326;45.302;-122.946;2023-08-06T11:40:39;0;0;
55459;PMS5003;41326;45.302;-122.946;2023-08-06T11:43:10;0;0;
55459;PMS5003;41326;45.302;-122.946;2023-08-06T11:45:40;0;0;
55459;PMS5003;41326;45.302;-122.946;2023-08-06T11:48:10;1;1;
55459;PMS5003;41326;45.302;-122.946;2023-08-06T11:50:41;0;0;
55459;PMS5003;41326;45.302;-122.946;2023-08-06T11:53:12;0;0;
55459;PMS5003;41326;45.302;-122.946;2023-08-06T11:55:41;0;0;
55459;PMS5003;41326;45.302;-122.946;2023-08-06T11:58:11;0;0;
55459;PMS5003;41326;45.302;-122.946;2023-08-06T12:00:42;1;1;
55459;PMS5003;41326;45.302;-122.946;2023-08-06T12:03:12;2;1;
55459;PMS5003;41326;45.302;-122.946;2023-08-06T12:05:42;2;1;
55459;PMS5003;41326;45.302;-122.946;2023-08-06T12:08:13;1;1;
55459;PMS5003;41326;45.302;-122.946;2023-08-06T12:10:43;1;0;
55459;PMS5003;41326;45.302;-122.946;2023-08-06T12:13:13;1;1;
55459;PMS5003;41326;45.302;-122.946;2023-08-06T12:15:44;1;1;
55459;PMS5003;41326;45.302;-122.946;2023-08-06T12:18:14;1;1;
55459;PMS5003;41326;45.302;-122.946;2023-08-06T12:20:44;1;1;
55459;PMS5003;41326;45.302;-122.946;2023-08-06T12:23:14;1;1;
55459;PMS5003;41326;45.302;-122.946;2023-08-06T12:25:44;1;1;
55459;PMS5003;41326;45.302;-122.946;2023-08-06T12:28:15;0;0;
55459;PMS5003;41326;45.302;-122.946;2023-08-06T12:30:45;3;2;
55459;PMS5003;41326;45.302;-122.946;2023-08-06T12:33:15;1;1;
55459;PMS5003;41326;45.302;-122.946;2023-08-06T12:35:46;1;1;
55459;PMS5003;41326;45.302;-122.946;2023-08-06T12:38:16;1;1;
55459;PMS5003;41326;45.302;-122.946;2023-08-06T12:40:46;3;3;
55459;PMS5003;41326;45.302;-122.946;2023-08-06T12:43:16;1;0;
55459;PMS5003;41326;45.302;-122.946;2023-08-06T12:45:47;0;0;
55459;PMS5003;41326;45.302;-122.946;2023-08-06T12:48:17;0;0;
55459;PMS5003;41326;45.302;-122.946;2023-08-06T12:50:47;1;1;
55459;PMS5003;41326;45.302;-122.946;2023-08-06T12:53:18;1;1;
55459;PMS5003;41326;45.302;-122.946;2023-08-06T12:55:48;1;1;
55459;PMS5003;41326;45.302;-122.946;2023-08-06T12:58:18;0;0;
55459;PMS5003;41326;45.302;-122.946;2023-08-06T13:00:49;3;1;
55459;PMS5003;41326;45.302;-122.946;2023-08-06T13:03:19;1;1;
55459;PMS5003;41326;45.302;-122.946;2023-08-06T13:05:50;1;1;
55459;PMS5003;41326;45.302;-122.946;2023-08-06T13:08:20;0;0;
55459;PMS5003;41326;45.302;-122.946;2023-08-06T13:10:50;0;0;
55459;PMS5003;41326;45.302;-122.946;2023-08-06T13:13:20;0;0;
55459;PMS5003;41326;45.302;-122.946;2023-08-06T13:15:51;0;0;
55459;PMS5003;41326;45.302;-122.946;2023-08-06T13:18:21;2;2;
55459;PMS5003;41326;45.302;-122.946;2023-08-06T13:20:53;1;1;
55459;PMS5003;41326;45.302;-122.946;2023-08-06T13:23:21;1;1;
55459;PMS5003;41326;45.302;-122.946;2023-08-06T13:25:51;1;1;
55459;PMS5003;41326;45.302;-122.946;2023-08-06T13:28:22;2;2;
55459;PMS5003;41326;45.302;-122.946;2023-08-06T13:30:52;2;1;
55459;PMS5003;41326;45.302;-122.946;2023-08-06T13:33:23;2;2;
55459;PMS5003;41326;45.302;-122.946;2023-08-06T13:35:53;2;2;
55459;PMS5003;41326;45.302;-122.946;2023-08-06T13:38:23;1;1;
55459;PMS5003;41326;45.302;-122.946;2023-08-06T13:40:53;3;2;
55459;PMS5003;41326;45.302;-122.946;2023-08-06T13:43:24;3;2;
55459;PMS5003;41326;45.302;-122.946;2023-08-06T13:45:54;2;2;
55459;PMS5003;41326;45.302;-122.946;2023-08-06T13:48:24;3;3;
55459;PMS5003;41326;45.302;-122.946;2023-08-06T13:50:54;1;0;
55459;PMS5003;41326;45.302;-122.946;2023-08-06T13:53:24;0;0;
55459;PMS5003;41326;45.302;-122.946;2023-08-06T13:55:55;2;1;
55459;PMS5003;41326;45.302;-122.946;2023-08-06T13:58:25;2;2;
55459;PMS5003;41326;45.302;-122.946;2023-08-06T14:00:55;5;2;
55459;PMS5003;41326;45.302;-122.946;2023-08-06T14:03:25;3;2;
55459;PMS5003;41326;45.302;-122.946;2023-08-06T14:05:56;1;1;
55459;PMS5003;41326;45.302;-122.946;2023-08-06T14:08:26;3;1;
55459;PMS5003;41326;45.302;-122.946;2023-08-06T14:10:57;1;1;
55459;PMS5003;41326;45.302;-122.946;2023-08-06T14:13:28;2;0;
55459;PMS5003;41326;45.302;-122.946;2023-08-06T14:15:58;3;2;
55459;PMS5003;41326;45.302;-122.946;2023-08-06T14:18:28;3;1;
55459;PMS5003;41326;45.302;-122.946;2023-08-06T14:20:58;1;1;
55459;PMS5003;41326;45.302;-122.946;2023-08-06T14:23:29;4;2;
55459;PMS5003;41326;45.302;-122.946;2023-08-06T14:25:59;1;1;
55459;PMS5003;41326;45.302;-122.946;2023-08-06T14:28:30;2;2;
55459;PMS5003;41326;45.302;-122.946;2023-08-06T14:31:01;2;2;
55459;PMS5003;41326;45.302;-122.946;2023-08-06T14:33:30;3;1;
55459;PMS5003;41326;45.302;-122.946;2023-08-06T14:36:01;3;2;
55459;PMS5003;41326;45.302;-122.946;2023-08-06T14:38:31;2;2;
55459;PMS5003;41326;45.302;-122.946;2023-08-06T14:41:02;3;1;
55459;PMS5003;41326;45.302;-122.946;2023-08-06T14:43:33;2;2;
55459;PMS5003;41326;45.302;-122.946;2023-08-06T14:46:04;2;2;
55459;PMS5003;41326;45.302;-122.946;2023-08-06T14:48:33;1;1;
55459;PMS5003;41326;45.302;-122.946;2023-08-06T14:51:03;1;1;
55459;PMS5003;41326;45.302;-122.946;2023-08-06T14:53:33;2;2;
55459;PMS5003;41326;45.302;-122.946;2023-08-06T14:56:04;2;1;
55459;PMS5003;41326;45.302;-122.946;2023-08-06T14:58:33;3;1;
55459;PMS5003;41326;45.302;-122.946;2023-08-06T15:01:03;3;3;
55459;PMS5003;41326;45.302;-122.946;2023-08-06T15:03:34;2;1;
55459;PMS5003;41326;45.302;-122.946;2023-08-06T15:06:04;1;1;
55459;PMS5003;41326;45.302;-122.946;2023-08-06T15:08:34;2;1;
55459;PMS5003;41326;45.302;-122.946;2023-08-06T15:11:05;2;1;
55459;PMS5003;41326;45.302;-122.946;2023-08-06T15:13:35;0;0;
55459;PMS5003;41326;45.302;-122.946;2023-08-06T15:16:06;1;1;
55459;PMS5003;41326;45.302;-122.946;2023-08-06T15:18:36;2;2;
55459;PMS5003;41326;45.302;-122.946;2023-08-06T15:21:06;1;1;
55459;PMS5003;41326;45.302;-122.946;2023-08-06T15:23:36;2;1;
55459;PMS5003;41326;45.302;-122.946;2023-08-06T15:26:07;0;0;
55459;PMS5003;41326;45.302;-122.946;2023-08-06T15:28:37;3;2;
55459;PMS5003;41326;45.302;-122.946;2023-08-06T15:31:07;4;2;
55459;PMS5003;41326;45.302;-122.946;2023-08-06T15:33:38;2;1;
55459;PMS5003;41326;45.302;-122.946;2023-08-06T15:36:09;2;1;
55459;PMS5003;41326;45.302;-122.946;2023-08-06T15:38:38;1;1;
55459;PMS5003;41326;45.302;-122.946;2023-08-06T15:41:08;2;2;
55459;PMS5003;41326;45.302;-122.946;2023-08-06T15:43:39;2;2;
55459;PMS5003;41326;45.302;-122.946;2023-08-06T15:46:10;1;1;
55459;PMS5003;41326;45.302;-122.946;2023-08-06T15:48:41;2;1;
55459;PMS5003;41326;45.302;-122.946;2023-08-06T15:51:10;3;2;
55459;PMS5003;41326;45.302;-122.946;2023-08-06T15:53:42;3;2;
55459;PMS5003;41326;45.302;-122.946;2023-08-06T15:56:11;2;2;
55459;PMS5003;41326;45.302;-122.946;2023-08-06T15:58:41;1;1;
55459;PMS5003;41326;45.302;-122.946;2023-08-06T16:01:12;0;0;
55459;PMS5003;41326;45.302;-122.946;2023-08-06T16:03:42;2;2;
55459;PMS5003;41326;45.302;-122.946;2023-08-06T16:06:12;2;2;
55459;PMS5003;41326;45.302;-122.946;2023-08-06T16:08:43;1;1;
55459;PMS5003;41326;45.302;-122.946;2023-08-06T16:11:13;2;0;
55459;PMS5003;41326;45.302;-122.946;2023-08-06T16:13:43;2;2;
55459;PMS5003;41326;45.302;-122.946;2023-08-06T16:16:14;2;1;
55459;PMS5003;41326;45.302;-122.946;2023-08-06T16:18:44;2;0;
55459;PMS5003;41326;45.302;-122.946;2023-08-06T16:21:14;2;2;
55459;PMS5003;41326;45.302;-122.946;2023-08-06T16:23:44;1;0;
55459;PMS5003;41326;45.302;-122.946;2023-08-06T16:26:14;1;1;